Time;durP1;ratioP1;P1;durP2;ratioP2;P2;SDS_P1;SDS_P2;PMS_P1;PMS_P2;Temp;Humidity;BMP_temperature;BMP_pressure;BME280_temperature;BME280_humidity;BME280_pressure;Samples;Min_cycle;Max_cycle;Signal;HPM_P1;HPM_P2
2023/03/08 00:00:06;;;;;;;14.40;10.07;;;;;;;3.37;91.98;97786.59;5053596;28;20021;-75
2023/03/08 00:02:31;;;;;;;11.40;9.48;;;;;;;3.40;92.16;97798.47;5053837;28;20119;-75
2023/03/08 00:04:57;;;;;;;13.00;9.60;;;;;;;3.31;91.91;97783.47;5053439;28;20124;-75
2023/03/08 00:07:25;;;;;;;11.18;9.27;;;;;;;3.07;92.05;97752.00;5053714;28;20421;-75
2023/03/08 00:09:50;;;;;;;10.90;8.40;;;;;;;3.43;92.37;97812.03;5053400;28;20021;-75
2023/03/08 00:12:18;;;;;;;11.02;8.73;;;;;;;3.12;92.32;97770.63;5053357;28;20067;-75
2023/03/08 00:14:44;;;;;;;9.25;7.25;;;;;;;3.27;92.19;97799.97;5053118;28;20036;-75
2023/03/08 00:17:11;;;;;;;9.07;8.13;;;;;;;3.29;92.17;97811.88;5053328;28;20021;-75
2023/03/08 00:19:37;;;;;;;10.02;7.38;;;;;;;3.18;92.18;97796.06;5053387;28;20108;-75
2023/03/08 00:22:02;;;;;;;8.88;7.32;;;;;;;3.24;92.41;97817.22;5053062;28;20068;-75
2023/03/08 00:24:28;;;;;;;9.38;7.53;;;;;;;3.25;92.60;97823.19;5052834;28;20040;-75
2023/03/08 00:26:53;;;;;;;9.75;7.40;;;;;;;3.23;92.68;97820.69;5052504;28;20041;-74
2023/03/08 00:29:18;;;;;;;9.05;6.68;;;;;;;3.10;92.41;97788.72;5053591;28;20033;-75
2023/03/08 00:31:44;;;;;;;8.30;6.97;;;;;;;3.27;92.76;97823.94;5053000;28;20078;-75
2023/03/08 00:34:09;;;;;;;7.78;6.95;;;;;;;3.08;92.80;97798.25;5053053;28;20066;-75
2023/03/08 00:36:34;;;;;;;9.40;6.38;;;;;;;3.22;92.97;97823.34;5053146;28;20047;-75
2023/03/08 00:39:00;;;;;;;8.23;6.82;;;;;;;3.19;93.06;97826.03;5052785;28;20267;-75
2023/03/08 00:41:25;;;;;;;9.27;7.18;;;;;;;3.22;93.20;97833.63;5052972;28;20033;-75
2023/03/08 00:43:50;;;;;;;7.72;6.35;;;;;;;3.10;93.12;97811.88;5052662;28;20033;-75
2023/03/08 00:46:16;;;;;;;9.90;7.30;;;;;;;3.21;93.18;97837.09;5053089;28;20533;-75
2023/03/08 00:48:42;;;;;;;9.38;6.93;;;;;;;3.20;93.17;97838.84;5052801;28;20419;-75
2023/03/08 00:51:10;;;;;;;8.63;6.82;;;;;;;3.05;93.18;97821.53;5052969;28;20037;-75
2023/03/08 00:53:35;;;;;;;7.82;6.30;;;;;;;3.08;93.34;97821.41;5051266;28;20056;-75
2023/03/08 00:56:01;;;;;;;7.68;6.85;;;;;;;3.09;93.06;97838.50;5052358;28;20321;-75
2023/03/08 00:58:28;;;;;;;9.27;7.20;;;;;;;2.98;93.30;97813.25;5052763;28;20064;-75
2023/03/08 01:00:54;;;;;;;9.35;7.95;;;;;;;2.83;93.12;97801.09;5051094;28;20032;-75
2023/03/08 01:03:23;;;;;;;10.20;7.78;;;;;;;3.08;93.24;97843.72;5052395;28;20107;-74
2023/03/08 01:05:50;;;;;;;9.88;7.70;;;;;;;2.96;93.18;97829.66;5052078;28;20486;-74
2023/03/08 01:08:17;;;;;;;8.15;7.05;;;;;;;3.10;93.30;97847.03;5052485;28;20061;-74
2023/03/08 01:10:47;;;;;;;9.50;7.32;;;;;;;3.08;92.99;97847.13;5052530;28;20037;-74
2023/03/08 01:13:12;;;;;;;8.02;6.45;;;;;;;3.12;93.12;97861.50;5052264;28;20456;-74
2023/03/08 01:15:38;;;;;;;10.02;7.35;;;;;;;3.03;92.59;97855.94;5052662;28;20029;-74
2023/03/08 01:18:05;;;;;;;8.95;7.45;;;;;;;2.89;92.86;97844.53;5051999;28;20083;-75
2023/03/08 01:20:30;;;;;;;8.65;6.38;;;;;;;3.01;93.07;97858.56;5052353;28;20079;-74
2023/03/08 01:22:55;;;;;;;9.82;6.30;;;;;;;2.85;92.90;97847.31;5052313;28;20029;-74
2023/03/08 01:25:21;;;;;;;9.82;6.53;;;;;;;2.77;92.95;97839.91;5051921;28;20072;-75
2023/03/08 01:27:46;;;;;;;6.30;5.25;;;;;;;2.93;92.81;97878.66;5051829;28;20032;-74
2023/03/08 01:30:12;;;;;;;9.10;6.30;;;;;;;2.90;93.06;97871.06;5052163;28;20029;-75
2023/03/08 01:32:37;;;;;;;7.95;5.70;;;;;;;2.91;92.90;97876.16;5052051;28;20025;-75
2023/03/08 01:35:03;;;;;;;8.60;5.65;;;;;;;2.68;92.77;97850.59;5051934;28;20457;-75
2023/03/08 01:37:29;;;;;;;5.63;4.80;;;;;;;2.59;92.81;97841.56;5051347;28;20521;-75
2023/03/08 01:39:55;;;;;;;8.40;4.80;;;;;;;2.72;93.24;97867.56;5051766;28;20515;-75
2023/03/08 01:42:20;;;;;;;10.10;5.57;;;;;;;2.73;93.04;97867.50;5051919;28;20037;-74
2023/03/08 01:44:56;;;;;;;6.90;4.85;;;;;;;2.81;93.23;97886.91;5051674;28;20067;-75
2023/03/08 01:47:24;;;;;;;7.72;5.22;;;;;;;2.64;92.34;97867.91;5051786;28;20037;-75
2023/03/08 01:49:51;;;;;;;8.05;5.90;;;;;;;2.80;92.57;97896.34;5051633;28;20021;-75
2023/03/08 01:52:30;;;;;;;8.48;6.10;;;;;;;2.74;92.23;97881.22;5051762;28;20029;-75
2023/03/08 01:54:59;;;;;;;8.00;6.05;;;;;;;2.74;92.64;97894.06;5051485;28;20044;-75
2023/03/08 01:57:27;;;;;;;8.57;5.88;;;;;;;2.79;92.29;97891.28;5052132;28;20063;-75
2023/03/08 01:59:56;;;;;;;6.72;5.80;;;;;;;2.79;92.46;97881.84;5051553;28;20032;-75
2023/03/08 02:02:26;;;;;;;7.75;5.28;;;;;;;2.77;92.39;97887.94;5051790;28;20388;-75
2023/03/08 02:04:52;;;;;;;6.97;5.65;;;;;;;2.55;92.41;97860.59;5051442;28;20358;-75
2023/03/08 02:07:17;;;;;;;5.78;4.63;;;;;;;2.74;92.95;97900.03;5051584;28;20025;-75
2023/03/08 02:09:43;;;;;;;11.60;5.68;;;;;;;2.75;92.86;97908.56;5051857;28;20016;-75
2023/03/08 02:12:11;;;;;;;7.22;5.40;;;;;;;2.45;92.54;97862.72;5051744;28;20078;-75
2023/03/08 02:14:38;;;;;;;6.72;5.57;;;;;;;2.70;92.98;97910.50;5051714;28;20021;-75
2023/03/08 02:17:04;;;;;;;7.68;5.78;;;;;;;2.59;93.24;97887.81;5051267;28;20491;-75
2023/03/08 02:19:50;;;;;;;8.30;5.30;;;;;;;2.73;93.09;97907.78;5051959;28;20025;-75
2023/03/08 02:22:16;;;;;;;10.95;5.40;;;;;;;2.60;93.11;97880.94;5051782;28;20029;-75
2023/03/08 02:24:42;;;;;;;7.35;5.25;;;;;;;2.63;93.11;97901.38;5051749;28;20431;-75
2023/03/08 02:27:15;;;;;;;8.77;5.53;;;;;;;2.70;93.35;97913.09;5051159;28;20045;-74
2023/03/08 02:29:40;;;;;;;8.13;5.95;;;;;;;2.70;93.58;97923.38;5051446;28;20025;-74
2023/03/08 02:32:06;;;;;;;6.63;5.68;;;;;;;2.68;93.67;97908.00;5051174;28;20021;-75
2023/03/08 02:34:32;;;;;;;8.05;5.88;;;;;;;2.63;93.26;97914.25;5051319;28;20057;-75
2023/03/08 02:36:57;;;;;;;9.73;6.30;;;;;;;2.62;93.79;97923.69;5051297;28;20036;-74
2023/03/08 02:39:23;;;;;;;8.10;5.85;;;;;;;2.63;94.04;97924.53;5051260;28;20060;-75
2023/03/08 02:41:48;;;;;;;7.82;6.25;;;;;;;2.71;94.23;97930.19;5051331;28;20108;-74
2023/03/08 02:44:13;;;;;;;8.18;6.03;;;;;;;2.54;94.20;97906.91;5051132;28;20021;-74
2023/03/08 02:46:39;;;;;;;9.20;6.25;;;;;;;2.67;94.31;97934.59;5051251;28;20077;-75
2023/03/08 02:49:04;;;;;;;7.93;5.75;;;;;;;2.54;94.26;97914.63;5053157;28;20365;-75
2023/03/08 02:51:29;;;;;;;7.70;5.63;;;;;;;2.70;94.34;97946.50;5055094;28;20040;-75
2023/03/08 02:53:55;;;;;;;7.30;6.07;;;;;;;2.59;94.66;97930.69;5054708;28;20151;-75
2023/03/08 02:56:20;;;;;;;7.72;5.93;;;;;;;2.51;94.53;97907.88;5054970;28;20112;-75
2023/03/08 02:58:45;;;;;;;6.50;5.60;;;;;;;2.53;94.76;97913.81;5054865;28;20356;-74
2023/03/08 03:01:12;;;;;;;6.93;5.78;;;;;;;2.52;94.68;97906.13;5054560;28;20029;-75
2023/03/08 03:03:38;;;;;;;8.20;6.05;;;;;;;2.49;94.74;97907.94;5054637;28;20032;-75
2023/03/08 03:06:03;;;;;;;8.60;5.75;;;;;;;2.57;94.81;97912.78;5054639;28;20025;-75
2023/03/08 03:08:30;;;;;;;9.68;6.25;;;;;;;2.48;94.46;97898.53;5054611;28;20104;-75
2023/03/08 03:10:55;;;;;;;8.95;6.85;;;;;;;2.68;94.43;97938.84;5054389;28;20396;-75
2023/03/08 03:13:20;;;;;;;8.10;6.38;;;;;;;2.53;94.50;97913.81;5054503;28;20024;-74
2023/03/08 03:15:46;;;;;;;6.88;5.93;;;;;;;2.66;94.48;97948.38;5053111;28;20029;-74
2023/03/08 03:18:11;;;;;;;7.25;5.95;;;;;;;2.58;94.57;97929.84;5053897;28;20072;-74
2023/03/08 03:20:36;;;;;;;10.93;7.07;;;;;;;2.47;94.77;97927.72;5054506;28;20116;-74
2023/03/08 03:23:02;;;;;;;8.82;6.80;;;;;;;2.61;94.67;97965.72;5054230;28;20100;-74
2023/03/08 03:25:27;;;;;;;7.82;6.05;;;;;;;2.36;94.89;97918.78;5054345;28;20141;-74
2023/03/08 03:27:54;;;;;;;8.20;6.60;;;;;;;2.47;94.87;97932.84;5054113;28;20052;-74
2023/03/08 03:30:19;;;;;;;9.55;6.70;;;;;;;2.59;94.89;97958.97;5054243;28;20040;-74
2023/03/08 03:32:44;;;;;;;10.95;8.35;;;;;;;2.48;94.45;97937.09;5054236;28;20029;-74
2023/03/08 03:35:10;;;;;;;9.98;7.88;;;;;;;2.63;94.56;97952.78;5053995;28;20393;-74
2023/03/08 03:37:35;;;;;;;12.13;8.00;;;;;;;2.61;94.74;97963.16;5054262;28;20457;-74
2023/03/08 03:40:01;;;;;;;9.73;6.70;;;;;;;2.46;94.42;97943.22;5053968;28;20079;-74
2023/03/08 03:42:26;;;;;;;9.88;7.70;;;;;;;2.59;94.52;97975.22;5054087;28;20033;-74
2023/03/08 03:44:52;;;;;;;8.98;6.97;;;;;;;2.41;94.69;97958.00;5054287;28;20033;-74
2023/03/08 03:47:17;;;;;;;10.38;7.53;;;;;;;2.54;94.77;97982.28;5053649;28;20021;-74
2023/03/08 03:49:42;;;;;;;10.00;7.57;;;;;;;2.47;94.42;97970.56;5054021;28;20032;-74
2023/03/08 03:52:08;;;;;;;10.85;8.07;;;;;;;2.55;94.18;97988.25;5053658;28;20473;-74
2023/03/08 03:54:33;;;;;;;10.50;7.35;;;;;;;2.54;94.78;98002.84;5052582;28;20431;-74
2023/03/08 03:56:59;;;;;;;9.50;6.88;;;;;;;2.57;94.77;98001.88;5053523;28;20025;-74
2023/03/08 03:59:25;;;;;;;9.98;7.40;;;;;;;2.53;94.28;97995.16;5053209;28;20029;-74
2023/03/08 04:01:50;;;;;;;7.53;6.18;;;;;;;2.49;94.38;97986.78;5053217;28;20031;-74
2023/03/08 04:04:16;;;;;;;8.30;7.40;;;;;;;2.31;94.33;97970.34;5053473;28;20028;-74
2023/03/08 04:06:41;;;;;;;7.82;6.97;;;;;;;2.35;94.43;97982.19;5053631;28;20107;-74
2023/03/08 04:09:12;;;;;;;8.75;7.00;;;;;;;2.37;94.42;97998.38;5053393;28;20021;-74
2023/03/08 04:11:38;;;;;;;10.40;7.82;;;;;;;2.31;94.74;97988.34;5053606;28;20033;-74
2023/03/08 04:14:05;;;;;;;11.52;8.27;;;;;;;2.25;94.68;97986.03;5053112;28;20021;-74
2023/03/08 04:16:33;;;;;;;10.07;7.63;;;;;;;2.05;94.41;97966.25;5053307;28;20133;-74
2023/03/08 04:19:01;;;;;;;11.85;8.48;;;;;;;2.18;94.69;97989.72;5053175;28;20029;-74
2023/03/08 04:21:28;;;;;;;12.27;8.00;;;;;;;2.19;94.96;97988.81;5053454;28;20110;-74
2023/03/08 04:23:53;;;;;;;13.77;9.23;;;;;;;2.36;95.05;98009.56;5053327;28;20021;-74
2023/03/08 04:26:20;;;;;;;13.70;9.60;;;;;;;2.38;94.88;98014.63;5053165;28;20044;-74
2023/03/08 04:28:45;;;;;;;13.80;9.73;;;;;;;2.24;94.85;97989.50;5053048;28;20079;-74
2023/03/08 04:31:19;;;;;;;11.77;8.50;;;;;;;2.39;95.03;98016.28;5052872;28;20025;-74
2023/03/08 04:33:45;;;;;;;9.70;7.93;;;;;;;2.23;94.92;97982.66;5051795;28;20047;-74
2023/03/08 04:36:11;;;;;;;11.95;8.50;;;;;;;2.40;94.90;98005.09;5052947;28;20512;-74
2023/03/08 04:38:37;;;;;;;13.27;8.52;;;;;;;2.37;95.22;98012.97;5052904;28;20021;-74
2023/03/08 04:41:06;;;;;;;8.77;7.40;;;;;;;2.23;95.27;97988.66;5052713;28;20086;-74
2023/03/08 04:43:32;;;;;;;11.32;6.85;;;;;;;2.43;95.14;98022.97;5052854;28;20067;-74
2023/03/08 04:45:58;;;;;;;10.10;6.80;;;;;;;2.24;95.08;97990.31;5052875;28;20044;-74
2023/03/08 04:48:24;;;;;;;14.10;7.43;;;;;;;2.36;95.03;98001.84;5053106;28;20029;-74
2023/03/08 04:50:54;;;;;;;15.30;8.80;;;;;;;2.34;95.32;98008.78;5052972;28;20419;-74
2023/03/08 04:53:20;;;;;;;11.73;8.38;;;;;;;2.36;95.26;98013.84;5052550;28;20028;-74
2023/03/08 04:55:45;;;;;;;14.05;9.65;;;;;;;2.40;95.36;98012.81;5052742;28;20033;-74
2023/03/08 04:58:10;;;;;;;12.10;8.70;;;;;;;2.39;95.44;98014.56;5052426;28;20029;-74
2023/03/08 05:00:36;;;;;;;13.90;9.55;;;;;;;2.27;95.33;98001.34;5052831;28;20040;-74
2023/03/08 05:03:02;;;;;;;13.48;9.20;;;;;;;2.24;95.49;98002.34;5052543;28;20032;-74
2023/03/08 05:05:28;;;;;;;13.05;10.27;;;;;;;2.41;95.39;98030.75;5052650;28;20045;-74
2023/03/08 05:07:53;;;;;;;13.95;9.85;;;;;;;2.38;95.47;98027.47;5052529;28;20020;-74
2023/03/08 05:10:18;;;;;;;18.23;10.07;;;;;;;2.43;95.43;98039.22;5052132;28;20392;-74
2023/03/08 05:12:43;;;;;;;18.42;12.15;;;;;;;2.38;95.40;98023.16;5052111;28;20053;-74
2023/03/08 05:15:10;;;;;;;17.55;11.57;;;;;;;2.34;95.66;98019.03;5052116;28;20056;-74
2023/03/08 05:17:35;;;;;;;17.30;12.35;;;;;;;2.40;95.41;98025.66;5052224;28;20059;-74
2023/03/08 05:20:01;;;;;;;18.98;13.18;;;;;;;2.41;95.39;98038.47;5052047;28;20481;-74
2023/03/08 05:22:26;;;;;;;16.17;12.05;;;;;;;2.31;95.17;98026.88;5050882;28;20025;-74
2023/03/08 05:24:51;;;;;;;19.45;13.55;;;;;;;2.37;95.46;98039.50;5052329;28;20530;-74
2023/03/08 05:27:17;;;;;;;22.95;14.88;;;;;;;2.40;95.43;98046.22;5051556;28;20055;-74
2023/03/08 05:29:42;;;;;;;20.33;14.80;;;;;;;2.43;95.54;98046.94;5052346;28;20025;-74
2023/03/08 05:32:11;;;;;;;21.13;14.73;;;;;;;2.33;95.57;98031.97;5052002;28;20128;-74
2023/03/08 05:34:36;;;;;;;23.05;15.30;;;;;;;2.38;95.61;98043.72;5052026;28;20056;-74
2023/03/08 05:37:02;;;;;;;21.45;15.98;;;;;;;2.38;95.14;98040.31;5051793;28;20061;-74
2023/03/08 05:39:29;;;;;;;21.33;14.55;;;;;;;2.44;95.41;98051.22;5051911;28;20052;-74
2023/03/08 05:41:55;;;;;;;23.08;14.40;;;;;;;2.41;95.23;98046.19;5051864;28;20473;-74
2023/03/08 05:44:20;;;;;;;20.40;14.90;;;;;;;2.33;95.44;98037.09;5051930;28;20508;-74
2023/03/08 05:46:49;;;;;;;21.52;14.70;;;;;;;2.46;95.16;98064.81;5051952;28;20029;-74
2023/03/08 05:49:14;;;;;;;22.15;15.65;;;;;;;2.41;95.38;98063.34;5051579;28;20354;-74
2023/03/08 05:51:39;;;;;;;22.75;15.30;;;;;;;2.33;95.47;98058.47;5051895;28;20067;-74
2023/03/08 05:54:05;;;;;;;24.65;15.55;;;;;;;2.40;95.79;98079.63;5051495;28;20054;-74
2023/03/08 05:56:30;;;;;;;20.15;14.85;;;;;;;2.39;95.23;98078.78;5051786;28;20066;-74
2023/03/08 05:58:56;;;;;;;21.33;15.93;;;;;;;2.11;95.40;98027.66;5052014;28;20139;-74
2023/03/08 06:01:23;;;;;;;19.23;14.65;;;;;;;2.41;95.32;98084.72;5051727;28;20124;-74
2023/03/08 06:03:57;;;;;;;20.67;14.25;;;;;;;2.33;95.23;98068.75;5051829;28;20025;-74
2023/03/08 06:06:25;;;;;;;18.95;14.45;;;;;;;2.41;95.26;98081.31;5051495;28;20499;-74
2023/03/08 06:08:50;;;;;;;20.30;14.63;;;;;;;2.42;95.37;98078.69;5051811;28;20060;-74
2023/03/08 06:11:17;;;;;;;21.63;14.60;;;;;;;2.28;95.17;98065.53;5051602;28;20056;-74
2023/03/08 06:13:43;;;;;;;21.73;15.23;;;;;;;2.28;95.07;98057.00;5051724;28;20024;-74
2023/03/08 06:16:08;;;;;;;26.92;16.27;;;;;;;2.19;95.12;98041.03;5051423;28;20125;-74
2023/03/08 06:18:36;;;;;;;21.33;16.55;;;;;;;2.49;95.09;98092.97;5051422;28;20032;-74
2023/03/08 06:21:03;;;;;;;19.17;13.40;;;;;;;2.53;95.06;98085.13;5051982;28;20055;-74
2023/03/08 06:23:30;;;;;;;15.65;12.65;;;;;;;2.34;94.88;98067.84;5052863;28;20028;-74
2023/03/08 06:25:56;;;;;;;20.88;14.07;;;;;;;2.44;94.87;98084.59;5055442;28;20044;-74
2023/03/08 06:28:23;;;;;;;19.23;14.65;;;;;;;2.37;94.63;98072.06;5055212;28;20047;-74
2023/03/08 06:30:48;;;;;;;20.05;15.27;;;;;;;2.34;94.54;98090.97;5055518;28;20029;-74
2023/03/08 06:33:19;;;;;;;19.40;13.38;;;;;;;2.28;94.49;98070.69;5055096;28;20048;-74
2023/03/08 06:36:01;;;;;;;18.60;12.85;;;;;;;2.53;94.58;98111.69;5055279;28;20480;-74
2023/03/08 06:38:27;;;;;;;18.35;12.02;;;;;;;2.45;94.22;98080.31;5055279;28;20082;-74
2023/03/08 06:40:52;;;;;;;21.05;14.00;;;;;;;2.62;93.90;98084.78;5055684;28;20021;-74
2023/03/08 06:43:18;;;;;;;30.52;20.25;;;;;;;2.95;93.44;98103.13;5055078;28;20028;-74
2023/03/08 06:45:43;;;;;;;24.05;15.95;;;;;;;3.17;92.77;98103.94;5055120;28;20029;-76
2023/03/08 06:48:09;;;;;;;20.55;16.77;;;;;;;3.30;91.66;98101.72;5054822;28;20112;-75
2023/03/08 06:50:34;;;;;;;21.48;14.23;;;;;;;2.75;91.22;98099.66;5054932;28;20079;-75
2023/03/08 06:52:59;;;;;;;22.85;13.88;;;;;;;2.17;93.21;98089.06;5054863;28;20460;-74
2023/03/08 06:55:25;;;;;;;20.88;14.63;;;;;;;1.94;95.12;98112.19;5054860;28;20036;-74
2023/03/08 06:57:50;;;;;;;19.25;13.07;;;;;;;1.70;96.21;98119.03;5055006;28;20024;-74
2023/03/08 07:00:17;;;;;;;20.25;14.15;;;;;;;1.60;97.43;98122.78;5054695;28;20037;-75
2023/03/08 07:02:42;;;;;;;19.83;14.10;;;;;;;1.38;98.73;98102.19;5054854;28;20109;-76
2023/03/08 07:05:08;;;;;;;21.73;14.65;;;;;;;1.43;99.05;98096.03;5054318;28;20029;-76
2023/03/08 07:07:35;;;;;;;21.42;15.55;;;;;;;1.48;100.00;98140.31;5055192;28;20023;-76
2023/03/08 07:10:01;;;;;;;27.75;16.80;;;;;;;1.32;100.00;98110.94;5054874;28;20090;-76
2023/03/08 07:12:26;;;;;;;25.02;16.67;;;;;;;1.40;100.00;98108.13;5054473;28;20029;-76
2023/03/08 07:14:52;;;;;;;25.48;15.20;;;;;;;1.60;100.00;98107.41;5054745;28;20033;-74
2023/03/08 07:17:18;;;;;;;16.38;10.98;;;;;;;1.77;100.00;98123.06;5054364;28;20040;-74
2023/03/08 07:19:44;;;;;;;15.93;11.18;;;;;;;1.95;100.00;98119.84;5054527;28;20040;-74
2023/03/08 07:22:11;;;;;;;19.98;12.32;;;;;;;2.33;98.72;98134.72;5054723;28;20377;-74
2023/03/08 07:24:37;;;;;;;17.17;11.45;;;;;;;2.41;98.20;98114.72;5054584;28;20087;-73
2023/03/08 07:27:03;;;;;;;16.15;11.00;;;;;;;2.78;97.04;98110.69;5054433;28;20049;-73
2023/03/08 07:29:28;;;;;;;22.05;12.20;;;;;;;2.96;94.99;98143.41;5054344;28;20377;-73
2023/03/08 07:31:54;;;;;;;26.02;15.07;;;;;;;2.96;95.48;98148.56;5054631;28;20461;-73
2023/03/08 07:34:19;;;;;;;35.72;26.35;;;;;;;3.36;95.17;98145.19;5053201;28;20120;-73
2023/03/08 07:36:44;;;;;;;21.58;13.07;;;;;;;3.50;93.77;98154.94;5053755;28;20534;-74
2023/03/08 07:39:10;;;;;;;27.50;19.52;;;;;;;3.33;93.64;98145.34;5054068;28;20154;-73
2023/03/08 07:41:35;;;;;;;24.60;16.52;;;;;;;3.52;94.14;98160.84;5054186;28;20070;-73
2023/03/08 07:44:01;;;;;;;21.83;15.45;;;;;;;3.32;92.88;98153.09;5054176;28;20044;-74
2023/03/08 07:46:27;;;;;;;24.30;16.45;;;;;;;3.09;94.73;98144.59;5053882;28;20480;-73
2023/03/08 07:48:52;;;;;;;21.92;17.30;;;;;;;3.17;94.08;98142.53;5053910;28;20032;-73
2023/03/08 07:51:18;;;;;;;16.95;10.63;;;;;;;3.08;94.32;98154.94;5053605;28;20086;-74
2023/03/08 07:53:43;;;;;;;50.53;33.95;;;;;;;2.95;93.90;98118.56;5053912;28;20049;-74
2023/03/08 07:56:10;;;;;;;30.95;18.98;;;;;;;3.04;93.14;98107.94;5053567;28;20158;-74
2023/03/08 07:58:36;;;;;;;17.55;11.60;;;;;;;3.36;93.20;98134.06;5053839;28;20036;-74
2023/03/08 08:01:07;;;;;;;61.67;42.90;;;;;;;3.64;93.14;98142.28;5053891;28;20036;-74
2023/03/08 08:03:33;;;;;;;27.40;20.20;;;;;;;4.32;92.18;98140.16;5053371;28;20392;-74
2023/03/08 08:06:01;;;;;;;13.10;10.43;;;;;;;4.88;88.94;98139.25;5053851;28;20033;-73
2023/03/08 08:08:27;;;;;;;24.75;18.13;;;;;;;5.09;86.99;98128.81;5053529;28;20397;-74
2023/03/08 08:10:52;;;;;;;11.13;8.07;;;;;;;5.67;84.07;98124.16;5053620;28;20108;-74
2023/03/08 08:13:17;;;;;;;17.05;11.73;;;;;;;5.64;83.17;98120.91;5053233;28;20044;-74
2023/03/08 08:15:43;;;;;;;36.00;26.88;;;;;;;5.49;83.65;98145.78;5053489;28;20068;-73
2023/03/08 08:18:08;;;;;;;52.83;39.50;;;;;;;5.30;83.66;98138.09;5053263;28;20115;-74
2023/03/08 08:20:33;;;;;;;17.65;12.57;;;;;;;5.11;85.00;98145.91;5053333;28;20063;-73
2023/03/08 08:22:58;;;;;;;63.95;48.25;;;;;;;4.96;84.94;98139.72;5053508;28;20048;-73
2023/03/08 08:25:24;;;;;;;30.58;20.13;;;;;;;5.07;84.14;98151.28;5053193;28;20037;-73
2023/03/08 08:27:50;;;;;;;37.90;26.67;;;;;;;4.70;85.46;98122.09;5053790;28;20025;-74
2023/03/08 08:30:16;;;;;;;10.65;7.50;;;;;;;4.70;84.33;98128.06;5053021;28;20465;-74
2023/03/08 08:32:41;;;;;;;16.27;10.90;;;;;;;4.68;85.04;98142.78;5053194;28;20120;-74
2023/03/08 08:35:07;;;;;;;29.35;21.95;;;;;;;4.41;86.75;98144.06;5053279;28;20079;-73
2023/03/08 08:37:33;;;;;;;29.65;22.70;;;;;;;4.22;87.39;98121.72;5053233;28;20033;-73
2023/03/08 08:39:59;;;;;;;20.38;16.13;;;;;;;4.13;88.94;98123.84;5053131;28;20468;-73
2023/03/08 08:42:25;;;;;;;24.85;18.80;;;;;;;4.33;88.14;98136.66;5052805;28;20025;-74
2023/03/08 08:44:53;;;;;;;20.60;16.30;;;;;;;4.23;87.24;98156.88;5052945;28;20106;-75
2023/03/08 08:47:18;;;;;;;26.33;21.45;;;;;;;4.16;87.56;98118.56;5052269;28;20106;-75
2023/03/08 08:49:44;;;;;;;17.30;13.10;;;;;;;4.42;86.04;98156.03;5052988;28;20063;-76
2023/03/08 08:52:09;;;;;;;15.38;9.93;;;;;;;3.71;87.43;98137.72;5052751;28;20476;-76
2023/03/08 08:54:38;;;;;;;42.65;28.58;;;;;;;3.61;88.87;98162.19;5052381;28;20473;-75
2023/03/08 08:57:04;;;;;;;89.55;70.60;;;;;;;4.03;88.41;98150.94;5052718;28;20025;-75
2023/03/08 08:59:29;;;;;;;24.98;20.33;;;;;;;3.59;88.89;98149.38;5052421;28;20033;-73
2023/03/08 09:01:55;;;;;;;13.05;11.32;;;;;;;3.50;90.11;98149.78;5051081;28;20443;-74
2023/03/08 09:04:20;;;;;;;61.72;46.88;;;;;;;3.87;89.32;98127.56;5041143;28;20039;-74
2023/03/08 09:06:46;;;;;;;26.63;19.60;;;;;;;3.85;88.67;98139.69;5046394;28;20017;-73
2023/03/08 09:09:11;;;;;;;60.42;42.58;;;;;;;3.53;89.10;98149.63;5051408;28;20057;-73
2023/03/08 09:11:37;;;;;;;41.78;30.35;;;;;;;3.43;90.88;98149.19;5051802;28;20437;-73
2023/03/08 09:14:02;;;;;;;25.30;18.08;;;;;;;3.57;90.37;98117.72;5044038;28;20531;-74
2023/03/08 09:16:30;;;;;;;10.23;8.13;;;;;;;3.19;88.79;98119.31;5031994;28;20362;-74
2023/03/08 09:18:57;;;;;;;13.70;12.30;;;;;;;3.00;90.21;98130.38;5041470;28;20033;-74
2023/03/08 09:21:23;;;;;;;22.42;16.00;;;;;;;3.38;90.36;98116.84;5042747;28;20400;-75
2023/03/08 09:23:49;;;;;;;28.70;22.70;;;;;;;3.15;89.66;98125.50;5051800;28;20120;-74
2023/03/08 09:26:14;;;;;;;29.50;25.92;;;;;;;3.10;90.41;98132.56;5052041;28;20081;-74
2023/03/08 09:28:40;;;;;;;23.23;18.42;;;;;;;3.41;91.06;98137.25;5048508;28;20519;-74
2023/03/08 09:31:13;;;;;;;13.65;9.32;;;;;;;3.55;90.45;98131.56;5044184;28;20465;-74
2023/03/08 09:33:44;;;;;;;14.38;10.13;;;;;;;3.34;90.73;98125.56;5048335;28;20469;-74
2023/03/08 09:36:10;;;;;;;12.80;10.57;;;;;;;3.39;91.46;98121.91;5037533;28;20473;-74
2023/03/08 09:38:36;;;;;;;9.30;8.38;;;;;;;3.71;90.38;98099.94;5032060;28;20037;-74
2023/03/08 09:41:29;;;;;;;30.77;22.48;;;;;;;3.72;89.51;98132.50;5032202;28;20037;-74
2023/03/08 09:44:21;;;;;;;36.50;25.50;;;;;;;3.80;90.57;98134.75;5032317;28;20080;-74
2023/03/08 09:46:53;;;;;;;53.80;37.95;;;;;;;4.28;88.78;98123.16;5032189;28;20060;-74
2023/03/08 09:49:26;;;;;;;40.83;28.98;;;;;;;3.96;87.49;98115.16;5031813;28;20487;-74
2023/03/08 09:51:59;;;;;;;35.92;22.88;;;;;;;3.79;87.88;98109.88;5031858;28;20034;-74
2023/03/08 09:54:26;;;;;;;143.32;105.28;;;;;;;4.39;87.74;98112.38;5031754;28;20131;-74
2023/03/08 09:56:52;;;;;;;34.25;24.08;;;;;;;4.09;87.74;98094.84;5032203;28;20025;-74
2023/03/08 09:59:32;;;;;;;114.65;81.80;;;;;;;4.00;87.72;98083.19;5031099;28;20109;-74
2023/03/08 10:02:18;;;;;;;23.55;16.02;;;;;;;4.55;86.81;98071.22;5031973;28;20108;-74
2023/03/08 10:05:03;;;;;;;8.65;7.30;;;;;;;4.50;84.98;98080.00;5032052;28;20030;-74
2023/03/08 10:08:03;;;;;;;19.75;15.70;;;;;;;4.22;85.81;98087.38;5031727;28;20063;-74
2023/03/08 10:10:52;;;;;;;16.13;13.73;;;;;;;4.82;85.51;98076.81;5009376;28;20135;-75
2023/03/08 10:13:30;;;;;;;24.58;15.25;;;;;;;4.55;85.97;98055.75;5009339;28;20034;-75
2023/03/08 10:16:16;;;;;;;14.07;9.60;;;;;;;4.55;87.21;98076.38;5009548;28;20042;-75
2023/03/08 10:18:58;;;;;;;19.83;12.73;;;;;;;4.98;86.09;98057.94;4950987;29;20060;-75
2023/03/08 10:21:25;;;;;;;9.93;7.53;;;;;;;4.67;84.03;98052.59;4951215;28;20039;-75
2023/03/08 10:24:26;;;;;;;13.00;9.98;;;;;;;4.54;85.08;98072.13;4951197;29;20134;-75
2023/03/08 10:27:05;;;;;;;17.48;8.65;;;;;;;5.08;84.19;98070.38;4912799;29;20052;-75
2023/03/08 10:29:30;;;;;;;11.18;8.82;;;;;;;4.99;83.40;98067.34;4912965;29;20559;-75
2023/03/08 10:31:55;;;;;;;8.65;7.72;;;;;;;4.90;83.10;98064.38;4913032;29;20048;-75
2023/03/08 10:34:28;;;;;;;16.25;8.80;;;;;;;4.95;82.57;98028.88;4912736;29;20046;-75
2023/03/08 10:37:00;;;;;;;9.20;8.30;;;;;;;5.23;81.99;98048.97;4912935;29;20408;-75
2023/03/08 10:39:26;;;;;;;9.50;7.88;;;;;;;4.93;84.18;98059.91;4912733;29;20409;-75
2023/03/08 10:41:58;;;;;;;12.65;8.65;;;;;;;4.83;83.47;98035.47;4912802;29;20131;-75
2023/03/08 10:44:38;;;;;;;8.57;7.15;;;;;;;5.37;81.38;98053.44;4912701;29;20496;-75
2023/03/08 10:47:17;;;;;;;11.98;9.27;;;;;;;4.97;82.93;98045.97;4905230;29;20040;-75
2023/03/08 10:49:44;;;;;;;11.82;9.20;;;;;;;4.78;83.67;98042.59;4893867;29;20737;-75
2023/03/08 10:52:26;;;;;;;11.15;9.07;;;;;;;5.28;82.28;98034.09;4894094;29;20092;-75
2023/03/08 10:55:05;;;;;;;13.85;12.27;;;;;;;5.53;81.46;98050.91;4900660;29;20040;-75
2023/03/08 10:57:31;;;;;;;15.45;10.13;;;;;;;5.55;81.72;98051.66;4951074;29;20043;-74
2023/03/08 11:00:18;;;;;;;12.88;10.77;;;;;;;5.66;81.54;98041.59;4951008;29;20031;-75
2023/03/08 11:02:45;;;;;;;13.20;9.00;;;;;;;5.63;80.53;98045.16;4976568;28;20556;-75
2023/03/08 11:05:27;;;;;;;16.40;11.80;;;;;;;5.33;82.65;98041.59;5031451;28;20234;-74
2023/03/08 11:07:53;;;;;;;;;;;;;;;5.42;82.09;98044.53;5031627;28;20029;-75
2023/03/08 11:10:24;;;;;;;16.27;11.02;;;;;;;5.71;80.71;98037.84;5034013;28;19924;-75
2023/03/08 11:13:15;;;;;;;12.23;9.43;;;;;;;5.08;80.57;98017.03;5035090;28;20025;-74
2023/03/08 11:15:47;;;;;;;12.88;11.35;;;;;;;4.89;83.22;98016.28;5034668;28;20033;-75
2023/03/08 11:18:24;;;;;;;14.45;11.93;;;;;;;5.33;82.24;98026.09;5034527;28;20129;-75
2023/03/08 11:20:58;;;;;;;12.23;9.85;;;;;;;5.08;82.74;98021.34;5034577;28;20470;-75
2023/03/08 11:23:36;;;;;;;9.45;8.38;;;;;;;4.97;83.89;98008.97;5034280;28;20022;-75
2023/03/08 11:26:48;;;;;;;13.60;8.88;;;;;;;5.28;82.38;98010.03;5034244;28;20049;-75
2023/03/08 11:29:31;;;;;;;15.90;11.40;;;;;;;5.06;82.88;98013.69;4953842;29;20036;-75
2023/03/08 11:31:59;;;;;;;36.67;13.77;;;;;;;5.17;83.04;98006.22;4953879;29;20141;-75
2023/03/08 11:34:44;;;;;;;61.53;22.30;;;;;;;5.16;81.62;97963.28;4953508;29;20523;-75